Decoded Metar for RJTY (YOKOTA in JAPAN) (IATA:OKO) | Meteo·Mobile Aviation Weather
aviador You're here:

RJTY Decoded Metar

YOKOTA in JAPAN
Report Time2019-02-22 13:56:00
UTC Time2019-02-22 14:36:40
Flight Rules vfr VFR
Wind340° at 06 kt
W.Decomp.*RWY 36: 5.8 kt HW 1.5 kt LCW
W.Rank340° ranks 9
Current wind is below 340° avg. (6.0)
Visibility9999 m
Phenomena:N/A
Clouds:N/A
Expected CloudBase > 1,600 ft AGL from Temp-Dew spread
CeilingNone
Temp07°C (ISA -7)
Dew Point03°C (76% RH)
AAT3.3°C
QNH1015 hPa
Density Alt-361 ft
Elevation456 ft
Report Wrong Elevation
Raw Report
RJTY 221356Z AUTO 34006KT 10SM CLR 07/03 A2997 RMK AO2 SLP156
T00740027 FZRANO $=

Extra information for RJTY:More info

Metar Taf Metar & Taf Last 4 Metars F.Rules Stats Wind Profile Meteogram Temp Stats Airport Information Weather charts Add Link Nearby VenuesMetar ALERT Operation Metar Decoded Social comments